This is the latest recevied weather packets stored in our database for station/object N9MXT-13. If no packets are shown the sender has not sent any weather packets the latest 10 day(s).
| Time | Temp. | Humidity | Pressure | Rain* | Wind** | Luminosity | Snow |
|---|---|---|---|---|---|---|---|
| 1777926899 | 27.22° C | 30% | 998.3 hPa | 0 mm | - | - | - |
| 1777926299 | 26.67° C | 29% | 998.2 hPa | 0 mm | - | - | - |
| 1777925399 | 26.67° C | 30% | 998.5 hPa | 0 mm | - | - | - |
| 1777924804 | 26.67° C | 29% | 998.9 hPa | 0 mm | - | - | - |
| 1777917604 | 25° C | 35% | 999.7 hPa | 0 mm | - | - | - |
| 1777915199 | 23.89° C | 36% | 1000.4 hPa | 0 mm | - | - | - |
| 1777914899 | 23.89° C | 36% | 1000.4 hPa | 0 mm | - | - | - |
| 1777912799 | 22.78° C | 37% | 1000.9 hPa | 0 mm | - | - | - |
| 1777912199 | 23.33° C | 37% | 1001.2 hPa | 0 mm | - | - | - |
| 1777911599 | 22.78° C | 40% | 1001.2 hPa | 0 mm | - | - | - |
| 1777910998 | 22.78° C | 42% | 1001.3 hPa | 0 mm | - | - | - |
| 1777905899 | 20° C | 47% | 1002.2 hPa | 0 mm | - | - | - |
| 1777905299 | 19.44° C | 50% | 1002.4 hPa | 0 mm | - | - | - |
| 1777903800 | 17.78° C | 57% | 1002.8 hPa | 0 mm | - | - | - |
| 1777902600 | 17.22° C | 57% | 1002.8 hPa | 0 mm | - | - | - |
| 1777900799 | 15° C | 61% | 1003.2 hPa | 0 mm | - | - | - |
| 1777899601 | 13.89° C | 66% | 1003.4 hPa | 0 mm | - | - | - |
| 1777898699 | 12.78° C | 69% | 1003.5 hPa | 0 mm | - | - | - |
| 1777897799 | 11.67° C | 73% | 1003.4 hPa | 0 mm | - | - | - |
| 1777897200 | 10.56° C | 79% | 1003.3 hPa | 0 mm | - | - | - |
| 1777895399 | 7.22° C | 88% | 1003.5 hPa | 0 mm | - | - | - |
| 1777893899 | 6.11° C | 88% | 1003.6 hPa | 0 mm | - | - | - |
| 1777893600 | 6.11° C | 88% | 1003.5 hPa | 0 mm | - | - | - |
| 1777893299 | 6.11° C | 88% | 1003.5 hPa | 0 mm | - | - | - |
| 1777885799 | 7.78° C | 81% | 1003.8 hPa | 0 mm | - | - | - |
* Rain latest hour (hover to see other rain measurements)
** Current wind speed in m/s (hover to see current wind gust speed)